Time;durP1;ratioP1;P1;durP2;ratioP2;P2;SDS_P1;SDS_P2;PMS_P1;PMS_P2;Temp;Humidity;BMP_temperature;BMP_pressure;BME280_temperature;BME280_humidity;BME280_pressure;Samples;Min_cycle;Max_cycle;Signal;HPM_P1;HPM_P2
2024/01/17 00:00:54;;;;;;;40.72;28.62;;;;;;;-3.19;100.00;99945.88;5554903;32;34484;-67
2024/01/17 00:03:58;;;;;;;37.50;27.85;;;;;;;-3.29;100.00;99943.94;5568853;32;33861;-66
2024/01/17 00:07:00;;;;;;;39.17;28.95;;;;;;;-3.36;100.00;99945.22;5568577;32;34668;-68
2024/01/17 00:10:04;;;;;;;14.15;6.32;;;;;;;-3.40;100.00;99949.75;5568692;32;34178;-68
2024/01/17 00:13:06;;;;;;;41.25;30.27;;;;;;;-3.46;100.00;99946.69;5568700;32;34059;-67
2024/01/17 00:16:09;;;;;;;40.22;29.48;;;;;;;-3.34;100.00;99951.16;5568390;32;33997;-67
2024/01/17 00:19:12;;;;;;;42.08;30.15;;;;;;;-3.35;100.00;99941.72;5568365;32;34042;-67
2024/01/17 00:22:16;;;;;;;18.87;7.07;;;;;;;-3.42;100.00;99938.63;5568489;32;34642;-68
2024/01/17 00:25:22;;;;;;;44.85;31.70;;;;;;;-3.49;100.00;99945.13;5555215;32;34549;-69
2024/01/17 00:28:25;;;;;;;17.58;7.32;;;;;;;-3.58;100.00;99937.84;5568502;32;34589;-69
2024/01/17 00:31:28;;;;;;;42.30;30.83;;;;;;;-3.68;100.00;99945.34;5568430;32;34042;-70
2024/01/17 00:34:33;;;;;;;47.03;32.10;;;;;;;-3.66;100.00;99942.66;5568232;32;34648;-68
2024/01/17 00:37:41;;;;;;;43.03;31.90;;;;;;;-3.72;100.00;99946.44;5568233;32;33858;-67
2024/01/17 00:40:44;;;;;;;16.62;7.87;;;;;;;-3.70;100.00;99941.19;5554627;32;33952;-67
2024/01/17 00:43:47;;;;;;;46.80;32.80;;;;;;;-3.77;100.00;99940.69;5568404;32;33947;-67
2024/01/17 00:46:50;;;;;;;45.83;33.15;;;;;;;-3.76;100.00;99941.53;5568040;32;33929;-67
2024/01/17 00:49:52;;;;;;;17.67;7.12;;;;;;;-3.80;100.00;99945.22;5567945;32;34775;-67
2024/01/17 00:52:55;;;;;;;44.67;32.67;;;;;;;-3.83;100.00;99943.66;5567953;32;33922;-67
2024/01/17 00:55:58;;;;;;;18.35;6.80;;;;;;;-3.85;100.00;99932.53;5567882;32;33919;-68
2024/01/17 00:59:01;;;;;;;41.95;31.52;;;;;;;-3.91;100.00;99926.84;5554708;32;34067;-67
2024/01/17 01:02:04;;;;;;;14.77;7.62;;;;;;;-3.90;100.00;99931.94;5570460;32;34586;-67
2024/01/17 01:05:07;;;;;;;47.15;32.58;;;;;;;-3.91;100.00;99938.03;5570535;32;33935;-67
2024/01/17 01:08:10;;;;;;;17.48;8.32;;;;;;;-3.93;100.00;99923.53;5570432;32;33878;-67
2024/01/17 01:11:13;;;;;;;45.47;33.25;;;;;;;-3.97;100.00;99926.28;5556842;32;34232;-67
2024/01/17 01:14:16;;;;;;;17.40;8.63;;;;;;;-3.98;100.00;99922.03;5556850;32;33935;-67
2024/01/17 01:17:19;;;;;;;42.75;31.87;;;;;;;-4.00;100.00;99923.03;5556831;32;34083;-67
2024/01/17 01:20:21;;;;;;;14.02;7.22;;;;;;;-4.05;100.00;99923.28;5557095;32;34013;-67
2024/01/17 01:23:26;;;;;;;12.88;7.18;;;;;;;-4.09;100.00;99926.16;5570295;32;33990;-66
2024/01/17 01:26:29;;;;;;;44.78;33.00;;;;;;;-4.10;100.00;99925.31;5556855;32;33949;-67
2024/01/17 01:29:32;;;;;;;43.13;32.53;;;;;;;-4.11;100.00;99926.22;5570550;32;34104;-67
2024/01/17 01:32:35;;;;;;;46.63;32.67;;;;;;;-4.11;100.00;99921.03;5556517;32;34686;-66
2024/01/17 01:35:38;;;;;;;19.60;7.37;;;;;;;-4.11;100.00;99917.63;5570210;32;33933;-67
2024/01/17 01:38:41;;;;;;;46.67;33.58;;;;;;;-4.14;100.00;99910.88;5570486;32;33960;-66
2024/01/17 01:41:44;;;;;;;10.13;5.78;;;;;;;-4.14;100.00;99910.03;5570086;32;33906;-66
2024/01/17 01:44:46;;;;;;;47.22;33.67;;;;;;;-4.13;100.00;99907.38;5570086;32;34097;-66
2024/01/17 01:47:50;;;;;;;13.73;7.07;;;;;;;-4.08;100.00;99897.56;5556379;32;34011;-66
2024/01/17 01:50:53;;;;;;;46.55;34.50;;;;;;;-3.98;100.00;99895.28;5570033;32;33926;-66
2024/01/17 01:54:03;;;;;;;46.08;33.08;;;;;;;-4.05;100.00;99888.78;5569940;32;34023;-66
2024/01/17 01:57:08;;;;;;;12.80;7.30;;;;;;;-4.08;100.00;99883.78;5556286;32;34092;-66
2024/01/17 02:00:12;;;;;;;43.35;32.40;;;;;;;-4.14;100.00;99871.19;5556323;32;35412;-66
2024/01/17 02:03:16;;;;;;;12.55;6.30;;;;;;;-4.19;100.00;99873.19;5570216;32;34965;-66
2024/01/17 02:06:20;;;;;;;46.55;32.05;;;;;;;-4.17;100.00;99871.37;5570327;32;34712;-67
2024/01/17 02:09:25;;;;;;;14.55;6.95;;;;;;;-4.20;100.00;99863.75;5570204;32;34263;-66
2024/01/17 02:12:28;;;;;;;14.18;7.28;;;;;;;-4.29;100.00;99853.91;5569969;31;34585;-67
2024/01/17 02:15:31;;;;;;;42.95;31.60;;;;;;;-4.30;100.00;99857.41;5556246;32;34622;-67
2024/01/17 02:18:33;;;;;;;44.55;31.73;;;;;;;-4.29;100.00;99859.94;5569726;32;34055;-67
2024/01/17 02:21:36;;;;;;;45.33;31.75;;;;;;;-4.28;100.00;99861.63;5570066;32;34940;-67
2024/01/17 02:24:39;;;;;;;8.95;5.70;;;;;;;-4.26;100.00;99854.56;5569675;32;34175;-67
2024/01/17 02:27:42;;;;;;;45.42;31.60;;;;;;;-4.33;100.00;99842.91;5569665;32;34749;-66
2024/01/17 02:30:45;;;;;;;14.20;5.60;;;;;;;-4.34;100.00;99837.81;5569717;32;34936;-67
2024/01/17 02:33:48;;;;;;;11.98;6.60;;;;;;;-4.32;100.00;99838.56;5569685;32;34590;-66
2024/01/17 02:36:51;;;;;;;39.67;28.65;;;;;;;-4.34;100.00;99841.25;5569755;32;34573;-66
2024/01/17 02:39:54;;;;;;;11.73;5.65;;;;;;;-4.36;100.00;99835.34;5556010;32;33889;-66
2024/01/17 02:42:56;;;;;;;39.35;28.45;;;;;;;-4.39;100.00;99833.72;5569742;32;34761;-66
2024/01/17 02:45:59;;;;;;;38.10;27.85;;;;;;;-4.42;100.00;99823.56;5569661;32;34082;-67
2024/01/17 02:49:03;;;;;;;40.78;28.48;;;;;;;-4.42;100.00;99830.50;5569588;32;34005;-67
2024/01/17 02:52:06;;;;;;;40.72;28.92;;;;;;;-4.44;100.00;99830.56;5556126;32;34576;-66
2024/01/17 02:55:11;;;;;;;8.80;4.87;;;;;;;-4.41;100.00;99837.34;5569432;32;33950;-66
2024/01/17 02:58:14;;;;;;;14.40;6.78;;;;;;;-4.47;100.00;99835.09;5569462;32;34035;-66
2024/01/17 03:01:17;;;;;;;42.85;29.08;;;;;;;-4.48;100.00;99836.00;5569794;32;33943;-66
2024/01/17 03:04:20;;;;;;;41.33;28.62;;;;;;;-4.50;100.00;99838.66;5569493;32;34278;-66
2024/01/17 03:07:23;;;;;;;13.95;4.97;;;;;;;-4.47;100.00;99837.69;5569587;32;34643;-67
2024/01/17 03:10:26;;;;;;;18.62;7.45;;;;;;;-4.53;100.00;99841.44;5569395;32;34716;-66
2024/01/17 03:13:29;;;;;;;44.20;30.27;;;;;;;-4.41;100.00;99842.53;5569115;32;33467;-66
2024/01/17 03:16:31;;;;;;;43.78;30.85;;;;;;;-4.43;100.00;99846.94;5569374;32;33906;-66
2024/01/17 03:19:34;;;;;;;16.15;6.85;;;;;;;-4.31;100.00;99838.50;5569448;32;33515;-66
2024/01/17 03:22:38;;;;;;;45.20;30.80;;;;;;;-4.33;100.00;99839.47;5568566;32;34104;-67
2024/01/17 03:25:40;;;;;;;45.92;30.05;;;;;;;-4.40;100.00;99831.22;5569263;32;33960;-66
2024/01/17 03:28:44;;;;;;;44.05;31.10;;;;;;;-4.44;100.00;99821.97;5555552;32;34136;-66
2024/01/17 03:31:47;;;;;;;45.22;31.25;;;;;;;-4.47;100.00;99815.22;5569171;32;34174;-67
2024/01/17 03:34:51;;;;;;;15.32;6.75;;;;;;;-4.46;100.00;99808.28;5569182;32;33970;-67
2024/01/17 03:37:54;;;;;;;48.35;30.75;;;;;;;-4.47;100.00;99807.47;5569259;32;34019;-67
2024/01/17 03:41:00;;;;;;;12.13;6.28;;;;;;;-4.56;100.00;99802.81;5555493;32;34643;-67
2024/01/17 03:44:03;;;;;;;15.95;8.00;;;;;;;-4.60;100.00;99803.87;5569051;32;34940;-67
2024/01/17 03:47:06;;;;;;;40.85;30.05;;;;;;;-4.64;100.00;99797.22;5569098;32;33903;-67
2024/01/17 03:50:09;;;;;;;43.78;29.92;;;;;;;-4.62;100.00;99794.53;5569047;32;34452;-67
2024/01/17 03:53:12;;;;;;;16.20;7.40;;;;;;;-4.66;100.00;99780.13;5569039;32;34105;-67
2024/01/17 03:56:15;;;;;;;40.38;29.60;;;;;;;-4.67;100.00;99776.69;5555352;32;33969;-67
2024/01/17 03:59:17;;;;;;;21.70;6.87;;;;;;;-4.64;100.00;99771.31;5568873;32;34002;-67
2024/01/17 04:02:20;;;;;;;45.35;30.37;;;;;;;-4.56;100.00;99773.50;5569011;32;34003;-67
2024/01/17 04:05:23;;;;;;;17.67;8.40;;;;;;;-4.36;100.00;99774.94;5568869;32;34098;-67
2024/01/17 04:08:26;;;;;;;15.52;7.47;;;;;;;-4.46;100.00;99785.00;5568789;32;33921;-67
2024/01/17 04:11:29;;;;;;;44.65;31.55;;;;;;;-4.58;100.00;99776.16;5568733;32;34004;-68
2024/01/17 04:14:32;;;;;;;16.98;7.28;;;;;;;-4.61;100.00;99784.12;5568586;32;34801;-67
2024/01/17 04:17:35;;;;;;;15.20;7.22;;;;;;;-4.65;100.00;99774.03;5568615;32;34544;-67
2024/01/17 04:20:38;;;;;;;51.55;34.45;;;;;;;-4.71;100.00;99769.19;5568561;32;34653;-68
2024/01/17 04:23:41;;;;;;;15.73;7.18;;;;;;;-4.71;100.00;99767.44;5554972;32;34000;-68
2024/01/17 04:26:44;;;;;;;20.40;8.80;;;;;;;-4.70;100.00;99748.41;5568433;32;33923;-67
2024/01/17 04:29:47;;;;;;;21.55;8.10;;;;;;;-4.73;100.00;99745.12;5568839;32;34035;-68
2024/01/17 04:32:50;;;;;;;48.38;32.13;;;;;;;-4.77;100.00;99736.72;5568367;32;34643;-67
2024/01/17 04:35:53;;;;;;;44.78;31.52;;;;;;;-4.74;100.00;99717.63;5570352;32;33983;-68
2024/01/17 04:38:56;;;;;;;14.87;7.55;;;;;;;-4.76;100.00;99714.28;5570769;32;34181;-67
2024/01/17 04:42:00;;;;;;;45.08;29.63;;;;;;;-4.83;100.00;99714.62;5570776;32;34711;-68
2024/01/17 04:45:03;;;;;;;14.32;5.82;;;;;;;-4.87;100.00;99723.47;5570680;32;34689;-68
2024/01/17 04:48:07;;;;;;;17.25;6.80;;;;;;;-4.78;100.00;99718.69;5570727;32;34024;-68
2024/01/17 04:51:11;;;;;;;41.90;29.37;;;;;;;-4.63;100.00;99718.66;5570969;32;33977;-68
2024/01/17 04:54:16;;;;;;;46.03;30.83;;;;;;;-4.58;100.00;99719.22;5570813;32;33960;-69
2024/01/17 04:57:18;;;;;;;10.63;6.55;;;;;;;-4.77;100.00;99705.69;5557093;32;33041;-67
2024/01/17 05:00:21;;;;;;;19.55;8.35;;;;;;;-4.90;100.00;99717.66;5556729;32;34814;-69
2024/01/17 05:03:24;;;;;;;44.63;29.37;;;;;;;-5.01;100.00;99720.00;5556835;32;34577;-67
2024/01/17 05:06:27;;;;;;;11.32;6.55;;;;;;;-4.99;100.00;99720.75;5570329;32;34580;-68
2024/01/17 05:09:30;;;;;;;42.67;29.30;;;;;;;-4.99;100.00;99726.78;5556790;32;34072;-68
2024/01/17 05:12:33;;;;;;;9.95;4.47;;;;;;;-4.92;100.00;99714.31;5570540;32;34736;-68
2024/01/17 05:15:36;;;;;;;42.70;28.38;;;;;;;-4.56;100.00;99717.41;5570436;32;34812;-68
2024/01/17 05:18:39;;;;;;;9.57;5.28;;;;;;;-4.44;100.00;99715.81;5570440;32;34742;-68
2024/01/17 05:21:43;;;;;;;44.10;29.12;;;;;;;-4.71;100.00;99702.75;5556746;32;34109;-68
2024/01/17 05:24:45;;;;;;;13.62;6.30;;;;;;;-4.66;100.00;99702.47;5570371;32;34038;-68
2024/01/17 05:27:52;;;;;;;39.63;28.27;;;;;;;-4.56;100.00;99716.56;5556609;32;34656;-68
2024/01/17 05:30:55;;;;;;;13.10;6.07;;;;;;;-4.63;100.00;99715.22;5556694;32;34552;-68
2024/01/17 05:33:57;;;;;;;16.27;7.20;;;;;;;-4.65;100.00;99717.94;5570204;32;34030;-67
2024/01/17 05:37:03;;;;;;;39.42;28.05;;;;;;;-4.42;100.00;99716.59;5570099;32;33931;-67
2024/01/17 05:40:06;;;;;;;43.55;28.95;;;;;;;-4.59;100.00;99708.94;5570281;32;34664;-67
2024/01/17 05:43:10;;;;;;;12.20;6.05;;;;;;;-4.60;100.00;99709.91;5569861;32;34011;-67
2024/01/17 05:46:12;;;;;;;17.62;7.37;;;;;;;-4.74;100.00;99715.84;5569543;32;34715;-68
2024/01/17 05:49:21;;;;;;;15.85;6.40;;;;;;;-4.78;100.00;99710.94;5569977;32;32690;-69
2024/01/17 05:52:24;;;;;;;40.55;27.90;;;;;;;-4.76;100.00;99704.75;5569873;32;34067;-68
2024/01/17 05:55:27;;;;;;;15.23;6.55;;;;;;;-4.71;100.00;99699.31;5569643;32;33995;-68
2024/01/17 05:58:29;;;;;;;43.10;29.12;;;;;;;-4.80;100.00;99702.44;5570103;32;33955;-69
2024/01/17 06:01:34;;;;;;;41.10;29.33;;;;;;;-4.79;100.00;99707.50;5569783;32;34069;-68
2024/01/17 06:04:37;;;;;;;11.43;4.60;;;;;;;-4.79;100.00;99706.69;5569662;32;34637;-68
2024/01/17 06:07:40;;;;;;;11.52;6.57;;;;;;;-4.72;100.00;99672.63;5555924;32;33937;-68
2024/01/17 06:10:44;;;;;;;42.03;29.15;;;;;;;-4.64;100.00;99678.16;5569560;32;34617;-67
2024/01/17 06:13:46;;;;;;;17.35;7.35;;;;;;;-4.51;100.00;99691.25;5569212;32;34129;-67
2024/01/17 06:16:49;;;;;;;41.22;28.15;;;;;;;-4.29;100.00;99694.22;5569274;32;34843;-68
2024/01/17 06:19:52;;;;;;;7.35;4.70;;;;;;;-4.03;100.00;99697.84;5569913;32;33764;-68
2024/01/17 06:22:56;;;;;;;43.67;28.77;;;;;;;-3.88;100.00;99691.75;5569279;32;34739;-68
2024/01/17 06:25:59;;;;;;;13.18;6.12;;;;;;;-3.56;100.00;99693.16;5569865;32;34070;-68
2024/01/17 06:29:02;;;;;;;46.03;29.37;;;;;;;-3.43;100.00;99682.84;5555761;32;34047;-68
2024/01/17 06:32:05;;;;;;;44.08;29.50;;;;;;;-3.36;100.00;99685.91;5569306;32;34988;-67
2024/01/17 06:35:10;;;;;;;10.27;5.10;;;;;;;-3.29;100.00;99700.16;5569430;32;33914;-68
2024/01/17 06:38:13;;;;;;;44.55;28.52;;;;;;;-3.24;100.00;99700.66;5555775;32;34102;-67
2024/01/17 06:41:17;;;;;;;45.30;29.42;;;;;;;-3.08;100.00;99714.31;5569184;32;34688;-68
2024/01/17 06:44:19;;;;;;;15.52;6.62;;;;;;;-3.24;100.00;99701.50;5569515;32;34691;-69
2024/01/17 06:47:22;;;;;;;41.58;27.83;;;;;;;-2.99;100.00;99699.94;5569131;32;34669;-68
2024/01/17 06:50:25;;;;;;;40.83;26.87;;;;;;;-3.01;100.00;99699.22;5568960;32;33946;-68
2024/01/17 06:53:28;;;;;;;43.05;27.85;;;;;;;-3.03;100.00;99693.28;5568824;32;34139;-68
2024/01/17 06:56:32;;;;;;;19.70;8.40;;;;;;;-2.90;100.00;99688.94;5567845;32;34002;-68
2024/01/17 06:59:35;;;;;;;38.63;26.05;;;;;;;-2.79;100.00;99699.47;5554678;32;33955;-68
2024/01/17 07:02:39;;;;;;;38.08;25.75;;;;;;;-2.93;100.00;99684.81;5568624;32;33948;-68
2024/01/17 07:05:42;;;;;;;40.85;26.08;;;;;;;-2.92;100.00;99683.88;5569126;32;34021;-68
2024/01/17 07:08:46;;;;;;;39.00;25.00;;;;;;;-2.97;100.00;99690.28;5569147;32;33948;-68
2024/01/17 07:11:49;;;;;;;34.30;24.67;;;;;;;-3.01;100.00;99681.87;5568858;31;34235;-69
2024/01/17 07:14:54;;;;;;;38.03;23.52;;;;;;;-2.98;100.00;99686.84;5569084;32;34022;-68
2024/01/17 07:17:58;;;;;;;13.68;4.72;;;;;;;-2.86;100.00;99686.09;5568892;32;34167;-67
2024/01/17 07:21:06;;;;;;;37.10;24.20;;;;;;;-2.83;100.00;99667.69;5569293;32;33702;-67
2024/01/17 07:24:10;;;;;;;34.35;24.77;;;;;;;-2.88;100.00;99664.56;5554752;32;34004;-68
2024/01/17 07:27:13;;;;;;;15.98;5.75;;;;;;;-3.07;100.00;99657.16;5568840;32;34787;-67
2024/01/17 07:30:16;;;;;;;34.50;24.00;;;;;;;-2.91;100.00;99649.22;5555173;32;34011;-69
2024/01/17 07:33:19;;;;;;;35.72;23.75;;;;;;;-2.87;100.00;99650.66;5568621;32;33916;-67
2024/01/17 07:36:23;;;;;;;10.93;5.55;;;;;;;-2.77;100.00;99658.69;5568582;32;34141;-67
2024/01/17 07:39:26;;;;;;;35.97;23.40;;;;;;;-2.74;100.00;99643.72;5568857;32;33897;-67
2024/01/17 07:42:29;;;;;;;33.97;24.05;;;;;;;-2.62;100.00;99642.09;5568706;32;34665;-67
2024/01/17 07:45:31;;;;;;;37.28;25.02;;;;;;;-2.63;100.00;99653.41;5568812;32;34074;-67
2024/01/17 07:48:34;;;;;;;39.63;26.58;;;;;;;-2.49;100.00;99647.28;5568718;32;33992;-68
2024/01/17 07:51:37;;;;;;;8.93;5.05;;;;;;;-2.44;100.00;99645.22;5568997;32;34603;-69
2024/01/17 07:54:40;;;;;;;34.60;24.95;;;;;;;-2.62;100.00;99630.88;5568748;32;33928;-68
2024/01/17 07:57:42;;;;;;;37.90;24.37;;;;;;;-2.71;100.00;99634.91;5568622;32;34324;-68
2024/01/17 08:00:46;;;;;;;37.10;25.30;;;;;;;-2.69;100.00;99641.66;5555119;32;34040;-68
2024/01/17 08:03:49;;;;;;;38.15;25.90;;;;;;;-2.63;100.00;99627.44;5568756;32;33940;-68
2024/01/17 08:06:53;;;;;;;42.08;26.10;;;;;;;-2.57;100.00;99632.22;5568273;32;34283;-68
2024/01/17 08:09:56;;;;;;;36.85;25.35;;;;;;;-2.50;100.00;99630.03;5568008;32;33871;-68
2024/01/17 08:13:02;;;;;;;21.05;7.53;;;;;;;-2.52;100.00;99632.75;5568132;32;34016;-68
2024/01/17 08:16:05;;;;;;;41.00;26.17;;;;;;;-2.55;100.00;99630.34;5568820;32;34253;-68
2024/01/17 08:19:08;;;;;;;40.63;25.88;;;;;;;-2.54;100.00;99632.00;5568418;32;34001;-68
2024/01/17 08:22:12;;;;;;;38.33;25.45;;;;;;;-2.56;100.00;99630.44;5568159;32;34205;-68
2024/01/17 08:25:15;;;;;;;37.08;25.98;;;;;;;-2.48;100.00;99634.19;5568276;32;33929;-67
2024/01/17 08:28:18;;;;;;;13.80;5.65;;;;;;;-2.44;100.00;99648.63;5568315;32;33990;-68
2024/01/17 08:31:20;;;;;;;40.45;25.35;;;;;;;-2.37;100.00;99642.06;5568321;32;34740;-68
2024/01/17 08:34:23;;;;;;;35.80;25.40;;;;;;;-2.35;100.00;99634.19;5568312;32;34078;-67
2024/01/17 08:37:26;;;;;;;39.90;25.37;;;;;;;-2.33;100.00;99625.38;5554554;32;34049;-68
2024/01/17 08:40:29;;;;;;;37.05;26.02;;;;;;;-2.21;100.00;99628.88;5567986;32;33967;-68
2024/01/17 08:43:36;;;;;;;38.70;27.35;;;;;;;-2.28;100.00;99628.50;5567842;32;34292;-68
2024/01/17 08:46:45;;;;;;;37.00;25.88;;;;;;;-2.10;100.00;99621.19;5567734;32;34651;-68
2024/01/17 08:49:48;;;;;;;43.78;27.62;;;;;;;-2.18;100.00;99617.47;5567759;32;34644;-68
2024/01/17 08:52:51;;;;;;;39.22;27.67;;;;;;;-2.24;100.00;99622.13;5554157;32;34723;-68
2024/01/17 08:55:54;;;;;;;39.40;27.08;;;;;;;-2.29;100.00;99616.44;5567574;32;34580;-68
2024/01/17 08:58:57;;;;;;;40.28;28.08;;;;;;;-2.31;100.00;99610.50;5554303;32;34573;-70
2024/01/17 09:01:59;;;;;;;41.13;28.33;;;;;;;-2.24;100.00;99597.94;5553820;32;34697;-68
2024/01/17 09:05:03;;;;;;;39.78;26.48;;;;;;;-2.20;100.00;99600.19;5567225;32;34696;-68
2024/01/17 09:08:05;;;;;;;39.38;27.23;;;;;;;-2.09;100.00;99596.87;5567316;32;33898;-69
2024/01/17 09:11:10;;;;;;;36.88;25.05;;;;;;;-2.10;100.00;99608.19;5567214;32;34591;-68
2024/01/17 09:14:12;;;;;;;33.35;23.08;;;;;;;-2.10;100.00;99595.19;5567158;32;34031;-69
2024/01/17 09:17:15;;;;;;;33.75;22.70;;;;;;;-2.13;100.00;99592.78;5567344;32;34043;-69
2024/01/17 09:20:18;;;;;;;35.20;23.33;;;;;;;-2.15;100.00;99586.06;5553978;32;34152;-68
2024/01/17 09:23:21;;;;;;;32.33;22.45;;;;;;;-2.14;100.00;99582.53;5569978;32;34751;-68
2024/01/17 09:26:24;;;;;;;31.87;21.95;;;;;;;-1.78;100.00;99578.16;5570119;32;34012;-68
2024/01/17 09:29:29;;;;;;;31.27;20.85;;;;;;;-1.94;100.00;99567.19;5556139;32;33980;-68
2024/01/17 09:32:32;;;;;;;28.00;20.77;;;;;;;-1.79;100.00;99573.87;5569890;32;34116;-67
2024/01/17 09:35:36;;;;;;;27.15;19.23;;;;;;;-2.04;100.00;99566.19;5569945;32;34069;-68
2024/01/17 09:38:55;;;;;;;26.80;18.67;;;;;;;-2.12;100.00;99560.69;5557884;32;34703;-69
2024/01/17 09:42:02;;;;;;;28.62;20.58;;;;;;;-2.26;100.00;99543.47;5556679;32;34106;-68
2024/01/17 09:45:06;;;;;;;33.03;21.30;;;;;;;-2.13;100.00;99537.41;5570496;32;34732;-68
2024/01/17 09:48:12;;;;;;;26.80;18.27;;;;;;;-1.94;100.00;99528.22;5570066;32;35057;-68
2024/01/17 09:51:16;;;;;;;24.50;18.67;;;;;;;-2.17;100.00;99522.97;5570018;32;34677;-68
2024/01/17 09:54:24;;;;;;;26.10;18.02;;;;;;;-2.29;100.00;99529.88;5570015;32;34733;-69
2024/01/17 09:57:34;;;;;;;28.45;19.50;;;;;;;-2.28;100.00;99519.38;5569910;32;33896;-68
2024/01/17 10:00:39;;;;;;;26.67;18.80;;;;;;;-2.21;100.00;99502.41;5569980;32;34625;-68
2024/01/17 10:03:45;;;;;;;27.13;18.52;;;;;;;-2.13;100.00;99501.03;5569981;32;34000;-69
2024/01/17 10:06:49;;;;;;;30.98;20.33;;;;;;;-2.11;100.00;99457.56;5570610;32;34019;-69
2024/01/17 10:09:52;;;;;;;31.20;22.05;;;;;;;-1.95;100.00;99453.78;5569783;32;33861;-68
2024/01/17 10:12:55;;;;;;;33.40;22.17;;;;;;;-2.07;100.00;99462.44;5569820;32;34615;-69
2024/01/17 10:16:03;;;;;;;29.75;20.52;;;;;;;-1.91;100.00;99465.59;5555871;32;33902;-69
2024/01/17 10:19:06;;;;;;;28.85;21.48;;;;;;;-2.01;100.00;99438.63;5569657;32;33981;-68
2024/01/17 10:22:10;;;;;;;32.78;20.65;;;;;;;-2.14;100.00;99430.06;5556468;32;34007;-67
2024/01/17 10:25:13;;;;;;;28.10;21.45;;;;;;;-2.06;100.00;99435.53;5569843;32;34014;-69
2024/01/17 10:28:16;;;;;;;31.75;21.70;;;;;;;-1.99;100.00;99428.94;5570034;32;33947;-69
2024/01/17 10:31:20;;;;;;;33.20;22.30;;;;;;;-1.85;100.00;99428.75;5569860;32;34098;-68
2024/01/17 10:34:27;;;;;;;28.15;20.95;;;;;;;-1.93;100.00;99418.09;5570065;32;34013;-70
2024/01/17 10:37:31;;;;;;;32.17;21.60;;;;;;;-1.80;100.00;99397.22;5556102;32;34050;-70
2024/01/17 10:40:34;;;;;;;30.70;21.48;;;;;;;-1.33;100.00;99409.25;5544038;32;34736;-69
2024/01/17 10:43:55;;;;;;;29.23;21.15;;;;;;;-1.15;100.00;99401.81;5569995;32;34361;-69
2024/01/17 10:46:58;;;;;;;;;;;;;;;-1.28;100.00;99394.13;5570884;32;34805;-69
2024/01/17 10:50:01;;;;;;;28.52;20.75;;;;;;;-1.23;100.00;99384.19;5569665;32;35032;-70
2024/01/17 10:53:08;;;;;;;30.85;20.55;;;;;;;-1.14;100.00;99382.66;5555749;32;34173;-69
2024/01/17 10:56:11;;;;;;;30.65;21.15;;;;;;;-1.37;100.00;99374.84;5555967;32;33917;-71
2024/01/17 10:59:19;;;;;;;30.42;22.08;;;;;;;-1.49;100.00;99348.94;5555968;32;33789;-72
2024/01/17 11:02:23;;;;;;;30.37;21.65;;;;;;;-1.21;100.00;99347.66;5555928;32;33413;-70
2024/01/17 11:05:32;;;;;;;31.02;22.58;;;;;;;-1.44;100.00;99341.59;5569798;32;34957;-70
2024/01/17 11:08:37;;;;;;;35.97;23.12;;;;;;;-1.32;100.00;99338.91;5569466;32;34110;-70
2024/01/17 11:11:42;;;;;;;31.87;23.20;;;;;;;-1.36;100.00;99321.06;5568957;32;34695;-71
2024/01/17 11:14:46;;;;;;;35.90;24.27;;;;;;;-1.39;100.00;99313.47;5569126;32;34607;-72
2024/01/17 11:17:51;;;;;;;33.15;24.33;;;;;;;-1.65;100.00;99306.84;5555544;32;34013;-69
2024/01/17 11:20:55;;;;;;;33.60;24.15;;;;;;;-1.58;100.00;99305.44;5556132;32;33944;-70
2024/01/17 11:24:12;;;;;;;35.45;25.52;;;;;;;-1.41;100.00;99292.78;5569271;32;33942;-71
2024/01/17 11:27:40;;;;;;;35.15;24.98;;;;;;;-1.32;100.00;99273.03;5569242;32;34029;-70
2024/01/17 11:31:02;;;;;;;35.45;23.75;;;;;;;-1.50;100.00;99266.69;5569087;32;33941;-70
2024/01/17 11:34:06;;;;;;;36.75;25.27;;;;;;;-1.22;100.00;99271.38;5569100;32;34880;-71
2024/01/17 11:37:09;;;;;;;37.95;26.10;;;;;;;-1.42;100.00;99256.50;5568900;32;33990;-70
2024/01/17 11:40:15;;;;;;;35.25;25.98;;;;;;;-1.50;100.00;99254.47;5568857;32;34159;-70
2024/01/17 11:43:19;;;;;;;34.47;24.83;;;;;;;-1.22;100.00;99267.94;5568348;32;33981;-70
2024/01/17 11:46:22;;;;;;;33.92;25.17;;;;;;;-1.27;100.00;99244.88;5568872;32;34015;-70
2024/01/17 11:49:41;;;;;;;35.28;25.27;;;;;;;-1.29;100.00;99249.38;5569297;32;33814;-69
2024/01/17 11:52:45;;;;;;;34.88;25.25;;;;;;;-1.36;100.00;99249.03;5569056;32;33967;-69
2024/01/17 11:55:51;;;;;;;37.40;25.70;;;;;;;-1.56;100.00;99244.56;5569161;32;35031;-69
2024/01/17 11:58:58;;;;;;;34.92;25.25;;;;;;;-1.43;100.00;99239.22;5568663;32;35075;-69
2024/01/17 12:02:01;;;;;;;34.28;26.12;;;;;;;-1.49;100.00;99224.09;5568965;32;34091;-69
2024/01/17 12:05:09;;;;;;;36.65;27.02;;;;;;;-1.56;100.00;99215.13;5568582;32;34063;-69
2024/01/17 12:08:12;;;;;;;36.03;26.02;;;;;;;-1.46;100.00;99210.88;5568712;32;34001;-69
2024/01/17 12:11:15;;;;;;;34.10;25.25;;;;;;;-1.35;100.00;99203.84;5568641;32;34146;-69
2024/01/17 12:14:18;;;;;;;30.85;23.00;;;;;;;-1.28;100.00;99200.78;5568403;32;33932;-68
2024/01/17 12:17:21;;;;;;;30.42;23.05;;;;;;;-1.28;100.00;99196.41;5568404;32;33908;-70
2024/01/17 12:20:25;;;;;;;35.85;24.25;;;;;;;-1.28;100.00;99199.00;5568309;32;34727;-68
2024/01/17 12:23:30;;;;;;;31.65;23.70;;;;;;;-1.25;100.00;99180.53;5568376;32;34210;-69
2024/01/17 12:26:34;;;;;;;37.55;24.73;;;;;;;-1.37;100.00;99181.53;5554652;32;34025;-69
2024/01/17 12:29:38;;;;;;;37.00;24.40;;;;;;;-1.40;100.00;99169.56;5568269;32;34292;-69
2024/01/17 12:32:41;;;;;;;33.28;24.70;;;;;;;-1.28;100.00;99156.53;5568220;32;34566;-70
2024/01/17 12:35:44;;;;;;;38.05;25.27;;;;;;;-1.22;100.00;99148.25;5554674;32;34262;-69
2024/01/17 12:38:50;;;;;;;33.92;25.15;;;;;;;-1.30;100.00;99141.03;5568393;32;34008;-70
2024/01/17 12:41:55;;;;;;;37.08;26.23;;;;;;;-1.28;100.00;99135.72;5554618;32;34310;-70
2024/01/17 12:44:58;;;;;;;38.08;25.37;;;;;;;-1.24;100.00;99124.94;5568143;32;34019;-69
2024/01/17 12:48:02;;;;;;;36.17;25.30;;;;;;;-1.21;100.00;99131.69;5568068;32;34135;-70
2024/01/17 12:51:06;;;;;;;37.80;25.50;;;;;;;-0.99;100.00;99124.63;5568292;32;34648;-70
2024/01/17 12:54:10;;;;;;;35.03;25.55;;;;;;;-1.09;100.00;99100.28;5567955;32;34016;-70
2024/01/17 12:57:13;;;;;;;34.28;24.58;;;;;;;-0.87;100.00;99110.56;5570437;32;34851;-70
2024/01/17 13:00:20;;;;;;;33.38;24.45;;;;;;;-0.90;100.00;99097.00;5570639;32;34043;-70
2024/01/17 13:03:24;;;;;;;32.42;24.45;;;;;;;-0.83;100.00;99103.34;5569928;32;34073;-70
2024/01/17 13:06:27;;;;;;;31.35;24.23;;;;;;;-0.67;100.00;99113.31;5556817;32;34116;-71
2024/01/17 13:09:31;;;;;;;34.03;25.23;;;;;;;-0.78;100.00;99096.00;5570294;32;34066;-70
2024/01/17 13:12:35;;;;;;;34.03;24.75;;;;;;;-0.76;100.00;99101.87;5570466;32;34071;-71
2024/01/17 13:15:39;;;;;;;34.08;24.35;;;;;;;-0.76;100.00;99093.25;5570315;32;34956;-71
2024/01/17 13:18:42;;;;;;;35.42;25.52;;;;;;;-0.78;100.00;99100.38;5570281;32;34116;-70
2024/01/17 13:21:49;;;;;;;33.90;24.45;;;;;;;-0.80;100.00;99084.88;5570213;32;34552;-70
2024/01/17 13:24:52;;;;;;;35.45;23.75;;;;;;;-0.73;100.00;99091.22;5570253;32;34768;-71
2024/01/17 13:28:01;;;;;;;32.90;25.67;;;;;;;-0.80;100.00;99079.66;5556903;32;34731;-71
2024/01/17 13:31:04;;;;;;;33.28;25.45;;;;;;;-0.93;100.00;99084.25;5570347;32;33965;-71
2024/01/17 13:34:06;;;;;;;31.27;24.83;;;;;;;-0.87;100.00;99081.09;5570043;32;33901;-71
2024/01/17 13:37:10;;;;;;;35.78;26.85;;;;;;;-0.95;100.00;99070.50;5570080;32;33967;-71
2024/01/17 13:40:12;;;;;;;35.65;26.60;;;;;;;-0.92;100.00;99060.66;5569720;32;34040;-70
2024/01/17 13:43:15;;;;;;;38.47;26.55;;;;;;;-0.82;100.00;99050.31;5570179;32;35294;-71
2024/01/17 13:46:18;;;;;;;37.95;27.65;;;;;;;-0.91;100.00;99051.09;5556618;32;34982;-72
2024/01/17 13:49:24;;;;;;;35.80;27.02;;;;;;;-0.82;100.00;99044.31;5570082;32;35139;-72
2024/01/17 13:52:32;;;;;;;38.55;26.60;;;;;;;-0.80;100.00;99043.22;5570325;32;33971;-73
2024/01/17 13:55:35;;;;;;;37.80;25.88;;;;;;;-0.75;100.00;99041.03;5556471;32;35090;-72
2024/01/17 13:58:38;;;;;;;36.97;27.37;;;;;;;-0.78;100.00;99041.31;5570417;32;34014;-72